Time;durP1;ratioP1;P1;durP2;ratioP2;P2;SDS_P1;SDS_P2;PMS_P1;PMS_P2;Temp;Humidity;BMP_temperature;BMP_pressure;BME280_temperature;BME280_humidity;BME280_pressure;Samples;Min_cycle;Max_cycle;Signal;HPM_P1;HPM_P2
2021/12/19 00:00:16;;;;;;;22.58;13.70;;;;;;;9.11;67.45;102890.84;685310;28;2011;-79
2021/12/19 00:00:37;;;;;;;23.92;14.02;;;;;;;9.04;67.39;102887.81;682599;29;1380;-80
2021/12/19 00:01:03;;;;;;;24.80;14.37;;;;;;;9.09;67.77;102882.03;685744;28;1132;-80
2021/12/19 00:01:35;;;;;;;23.48;14.07;;;;;;;9.10;67.86;102883.84;690852;28;1058;-80
2021/12/19 00:02:36;;;;;;;22.42;13.90;;;;;;;9.04;67.70;102890.41;682749;29;1257;-80
2021/12/19 00:04:20;;;;;;;26.98;13.95;;;;;;;9.06;67.83;102887.94;687968;28;1212;-80
2021/12/19 00:08:53;;;;;;;23.50;13.55;;;;;;;9.13;67.78;102884.94;696634;28;1936;-80
2021/12/19 00:09:13;;;;;;;22.48;13.60;;;;;;;9.20;67.65;102894.06;690778;28;1436;-80
2021/12/19 00:09:34;;;;;;;22.80;13.13;;;;;;;9.14;67.85;102889.34;693148;28;1228;-80
2021/12/19 00:09:55;;;;;;;20.98;12.95;;;;;;;9.11;67.65;102885.63;688103;28;1294;-80
2021/12/19 00:10:15;;;;;;;21.65;12.98;;;;;;;9.10;67.62;102878.63;688107;28;1903;-80
2021/12/19 00:10:36;;;;;;;22.07;13.67;;;;;;;9.18;67.77;102885.25;685361;28;1069;-81
2021/12/19 00:10:57;;;;;;;24.03;14.40;;;;;;;9.10;67.75;102873.41;682850;28;1425;-80
2021/12/19 00:11:22;;;;;;;24.15;14.60;;;;;;;9.13;67.54;102886.63;685547;28;1190;-80
2021/12/19 00:11:43;;;;;;;22.67;14.50;;;;;;;9.12;67.57;102882.22;683016;28;1253;-80
2021/12/19 00:12:04;;;;;;;23.80;14.50;;;;;;;9.12;67.51;102880.53;682386;28;1320;-80
2021/12/19 00:12:24;;;;;;;25.35;14.63;;;;;;;9.13;67.72;102881.44;681387;28;1741;-79
2021/12/19 00:12:45;;;;;;;28.63;14.90;;;;;;;9.09;67.50;102887.25;688221;28;839;-80
2021/12/19 00:13:07;;;;;;;28.33;14.70;;;;;;;9.09;67.89;102882.91;686817;28;1622;-80
2021/12/19 00:13:28;;;;;;;29.08;14.75;;;;;;;9.10;68.14;102881.22;687062;28;1427;-80
2021/12/19 00:13:49;;;;;;;27.90;14.43;;;;;;;9.16;67.73;102892.97;685587;28;1964;-80
2021/12/19 00:14:10;;;;;;;27.33;14.63;;;;;;;9.11;67.96;102886.56;684598;28;1237;-80
2021/12/19 00:14:31;;;;;;;24.87;14.50;;;;;;;9.14;67.91;102885.84;682969;28;1503;-80
2021/12/19 00:14:51;;;;;;;24.35;14.80;;;;;;;9.07;67.54;102868.91;679587;28;1998;-80
2021/12/19 00:15:12;;;;;;;23.15;14.65;;;;;;;9.09;68.04;102882.03;682197;28;1790;-80
2021/12/19 00:15:33;;;;;;;21.08;13.57;;;;;;;9.03;67.96;102878.19;682533;28;1658;-80
2021/12/19 00:15:55;;;;;;;20.80;12.90;;;;;;;9.02;68.04;102881.59;678688;28;2031;-80
2021/12/19 00:16:17;;;;;;;21.98;13.10;;;;;;;9.09;67.80;102887.25;684428;28;1948;-79
2021/12/19 00:16:37;;;;;;;25.60;14.50;;;;;;;9.12;67.85;102879.63;688679;28;1982;-80
2021/12/19 00:16:58;;;;;;;26.83;14.80;;;;;;;9.12;67.84;102893.56;689107;28;1448;-80
2021/12/19 00:17:19;;;;;;;26.08;14.77;;;;;;;9.12;67.79;102887.44;690514;28;2233;-80
2021/12/19 00:17:40;;;;;;;25.23;14.20;;;;;;;9.19;67.78;102907.91;690796;28;1177;-79
2021/12/19 00:18:00;;;;;;;24.73;14.25;;;;;;;9.10;67.88;102889.03;682639;29;1335;-79
2021/12/19 00:18:21;;;;;;;23.50;13.70;;;;;;;9.10;67.80;102896.84;680830;28;1132;-79
2021/12/19 00:18:43;;;;;;;23.95;13.45;;;;;;;9.05;68.16;102887.00;682482;28;1406;-80
2021/12/19 00:19:04;;;;;;;27.17;13.82;;;;;;;9.12;68.19;102897.84;684770;28;1920;-79
2021/12/19 00:19:25;;;;;;;29.52;13.98;;;;;;;9.13;67.87;102890.16;683690;28;1298;-80
2021/12/19 00:19:45;;;;;;;28.70;13.77;;;;;;;9.13;67.67;102889.25;683377;28;799;-80
2021/12/19 00:20:06;;;;;;;24.23;13.30;;;;;;;9.08;67.78;102886.31;685691;28;1237;-80
2021/12/19 00:20:27;;;;;;;21.67;13.35;;;;;;;9.08;67.99;102875.03;688490;28;1440;-80
2021/12/19 00:20:48;;;;;;;21.77;13.30;;;;;;;9.13;67.94;102882.34;685397;28;1520;-80
2021/12/19 00:21:17;;;;;;;23.20;13.50;;;;;;;9.17;67.51;102875.63;685334;28;1110;-80
2021/12/19 00:21:40;;;;;;;24.13;13.75;;;;;;;9.21;67.80;102887.16;684600;28;1769;-80
2021/12/19 00:22:08;;;;;;;22.45;14.07;;;;;;;9.19;67.74;102871.44;684314;28;1052;-80
2021/12/19 00:22:28;;;;;;;22.90;14.13;;;;;;;9.18;67.62;102874.84;678433;29;1747;-80
2021/12/19 00:23:07;;;;;;;23.83;14.15;;;;;;;9.15;67.63;102864.22;679599;29;1184;-79
2021/12/19 00:23:27;;;;;;;21.15;13.52;;;;;;;9.18;67.69;102877.44;679252;29;1517;-80
2021/12/19 00:23:51;;;;;;;21.70;13.47;;;;;;;9.14;67.85;102870.19;682739;28;880;-80
2021/12/19 00:24:12;;;;;;;22.45;13.35;;;;;;;9.28;67.53;102885.06;682335;29;1183;-80
2021/12/19 00:24:32;;;;;;;24.42;13.75;;;;;;;9.18;67.45;102865.34;688812;28;1019;-80
2021/12/19 00:24:53;;;;;;;22.97;13.60;;;;;;;9.23;67.50;102873.47;688194;28;863;-80
2021/12/19 00:25:13;;;;;;;22.75;13.35;;;;;;;9.23;67.49;102876.06;687510;28;1272;-80
2021/12/19 00:25:34;;;;;;;21.80;13.18;;;;;;;9.23;67.56;102865.63;682747;28;1011;-80
2021/12/19 00:25:55;;;;;;;23.43;13.33;;;;;;;9.26;67.41;102876.25;686881;28;1165;-80
2021/12/19 00:26:17;;;;;;;24.58;13.85;;;;;;;9.19;67.63;102874.03;685359;28;1979;-80
2021/12/19 00:26:37;;;;;;;24.35;13.90;;;;;;;9.15;67.63;102861.63;688906;28;1834;-80
2021/12/19 00:26:58;;;;;;;24.45;14.10;;;;;;;9.16;67.51;102868.63;685639;28;1058;-80
2021/12/19 00:27:19;;;;;;;22.05;13.45;;;;;;;9.09;67.37;102859.47;682055;28;1671;-80
2021/12/19 00:27:39;;;;;;;21.33;13.07;;;;;;;9.09;67.50;102859.47;680039;29;1104;-80
2021/12/19 00:28:00;;;;;;;20.08;12.82;;;;;;;9.17;67.50;102871.31;682705;29;1033;-80
2021/12/19 00:28:20;;;;;;;20.60;13.37;;;;;;;9.21;67.64;102871.53;682623;29;1131;-80
2021/12/19 00:28:42;;;;;;;21.00;13.27;;;;;;;9.24;67.71;102871.75;687681;28;1311;-80
2021/12/19 00:29:03;;;;;;;25.05;13.93;;;;;;;9.14;67.36;102849.38;688075;28;1123;-80
2021/12/19 00:29:24;;;;;;;26.38;13.35;;;;;;;9.24;67.40;102877.88;688034;28;988;-80
2021/12/19 00:29:44;;;;;;;24.70;13.68;;;;;;;9.12;67.79;102850.97;690930;28;732;-80
2021/12/19 00:30:05;;;;;;;23.47;13.80;;;;;;;9.12;67.56;102862.31;686402;28;1923;-80
2021/12/19 00:30:26;;;;;;;22.45;14.20;;;;;;;9.11;67.71;102859.59;687902;28;1133;-80
2021/12/19 00:30:47;;;;;;;25.00;14.20;;;;;;;9.09;67.33;102858.59;684306;28;837;-80
2021/12/19 00:31:08;;;;;;;24.90;14.13;;;;;;;9.08;67.69;102854.19;683187;28;1100;-80
2021/12/19 00:31:29;;;;;;;23.24;13.62;;;;;;;9.14;67.56;102865.91;685365;28;961;-80
2021/12/19 00:31:50;;;;;;;20.13;13.20;;;;;;;9.14;67.63;102865.91;688140;28;866;-80
2021/12/19 00:32:11;;;;;;;20.55;13.10;;;;;;;9.12;67.95;102861.38;689652;28;1823;-80
2021/12/19 00:32:31;;;;;;;22.07;13.30;;;;;;;9.14;67.47;102867.59;682753;29;1082;-83
2021/12/19 00:32:52;;;;;;;23.35;13.25;;;;;;;9.17;67.23;102854.78;687820;28;1659;-80
2021/12/19 00:33:12;;;;;;;26.20;13.30;;;;;;;9.15;67.43;102852.06;687545;28;1168;-80
2021/12/19 00:33:33;;;;;;;24.70;13.10;;;;;;;9.21;67.68;102856.78;685461;28;1037;-80
2021/12/19 00:33:54;;;;;;;22.38;13.50;;;;;;;9.15;67.58;102851.19;688360;28;1283;-80
2021/12/19 00:34:15;;;;;;;20.90;13.23;;;;;;;9.23;67.20;102855.22;688048;28;1074;-80
2021/12/19 00:34:36;;;;;;;20.50;12.98;;;;;;;9.24;67.31;102864.84;680245;29;1198;-80
2021/12/19 00:34:56;;;;;;;20.90;12.75;;;;;;;9.17;67.19;102847.88;685559;28;1041;-80
2021/12/19 00:35:17;;;;;;;20.20;12.80;;;;;;;9.23;67.39;102850.00;689209;28;1700;-80
2021/12/19 00:35:38;;;;;;;19.55;12.68;;;;;;;9.16;67.48;102842.56;691884;28;1518;-80
2021/12/19 00:35:59;;;;;;;18.58;12.13;;;;;;;9.25;67.43;102857.91;690583;28;1215;-80
2021/12/19 00:36:19;;;;;;;20.10;12.68;;;;;;;9.19;67.54;102853.19;687892;28;1187;-80
2021/12/19 00:36:40;;;;;;;19.65;12.25;;;;;;;9.20;67.21;102843.69;687943;28;1064;-80
2021/12/19 00:37:01;;;;;;;19.15;12.00;;;;;;;9.22;67.14;102848.16;682211;28;1969;-81
2021/12/19 00:37:22;;;;;;;17.83;11.23;;;;;;;9.28;67.19;102859.00;686627;28;1380;-80
2021/12/19 00:37:43;;;;;;;19.65;11.90;;;;;;;9.23;67.40;102855.22;688042;28;803;-80
2021/12/19 00:38:04;;;;;;;19.95;12.18;;;;;;;9.15;67.66;102848.59;690547;28;1268;-80
2021/12/19 00:38:25;;;;;;;20.27;12.25;;;;;;;9.15;67.51;102856.41;690270;28;2252;-80
2021/12/19 00:38:46;;;;;;;19.85;12.20;;;;;;;9.09;67.53;102838.63;687748;28;1904;-80
2021/12/19 00:39:06;;;;;;;19.83;11.97;;;;;;;9.15;67.59;102848.59;687934;28;1236;-80
2021/12/19 00:39:27;;;;;;;19.33;11.80;;;;;;;9.14;67.28;102849.38;687510;28;944;-80
2021/12/19 00:39:48;;;;;;;18.40;11.45;;;;;;;9.14;67.88;102855.50;688140;28;737;-80
2021/12/19 00:40:10;;;;;;;17.88;11.43;;;;;;;9.17;67.73;102865.22;685235;28;1147;-80
2021/12/19 00:40:32;;;;;;;17.42;11.52;;;;;;;9.11;67.58;102856.97;682634;29;1465;-80
2021/12/19 00:40:53;;;;;;;18.00;11.43;;;;;;;9.08;67.71;102844.66;682705;28;832;-80
2021/12/19 00:41:15;;;;;;;18.00;11.02;;;;;;;9.10;67.57;102842.16;682831;28;1155;-80
2021/12/19 00:41:35;;;;;;;19.17;11.07;;;;;;;9.11;67.69;102844.88;685303;28;1442;-79
2021/12/19 00:41:56;;;;;;;20.13;11.45;;;;;;;9.14;67.66;102846.75;689976;28;1938;-80
2021/12/19 00:42:33;;;;;;;22.33;12.20;;;;;;;9.12;67.41;102850.97;687897;28;913;-80
2021/12/19 00:43:04;;;;;;;20.23;11.98;;;;;;;9.10;67.48;102847.38;687792;28;871;-80
2021/12/19 00:43:35;;;;;;;19.05;11.75;;;;;;;9.10;67.61;102852.56;687881;28;1116;-80
2021/12/19 00:44:06;;;;;;;19.73;12.05;;;;;;;9.02;67.29;102837.31;685190;28;1295;-80
2021/12/19 00:44:29;;;;;;;18.42;11.63;;;;;;;9.11;67.21;102850.09;687939;28;1306;-80
2021/12/19 00:44:52;;;;;;;18.88;11.65;;;;;;;9.05;67.72;102834.91;687946;28;1382;-80
2021/12/19 00:45:20;;;;;;;19.00;11.30;;;;;;;9.16;67.22;102850.38;690647;28;1144;-80
2021/12/19 00:45:40;;;;;;;20.63;12.13;;;;;;;9.11;67.37;102841.34;682609;28;1168;-80
2021/12/19 00:46:07;;;;;;;19.40;12.10;;;;;;;9.11;67.29;102830.94;688133;28;1115;-80
2021/12/19 00:46:28;;;;;;;19.38;12.30;;;;;;;9.10;67.36;102836.94;690450;28;1917;-80
2021/12/19 00:46:52;;;;;;;19.10;11.90;;;;;;;9.14;67.26;102838.94;685459;28;828;-80
2021/12/19 00:47:12;;;;;;;18.08;11.57;;;;;;;9.13;67.07;102837.13;684643;28;1517;-79
2021/12/19 00:47:33;;;;;;;17.48;11.15;;;;;;;9.16;67.48;102847.78;682716;29;1082;-80
2021/12/19 00:48:17;;;;;;;17.10;10.93;;;;;;;9.20;67.53;102849.78;682696;29;810;-80
2021/12/19 00:48:43;;;;;;;20.55;10.98;;;;;;;9.18;67.42;102847.09;689629;28;1957;-80
2021/12/19 00:49:03;;;;;;;20.40;11.00;;;;;;;9.15;67.31;102845.97;694087;28;1101;-80
2021/12/19 00:49:24;;;;;;;17.97;10.70;;;;;;;9.22;67.29;102852.50;692830;28;1030;-80
2021/12/19 00:49:45;;;;;;;18.83;11.40;;;;;;;9.21;67.08;102841.16;689404;28;1093;-80
2021/12/19 00:50:06;;;;;;;18.95;11.48;;;;;;;9.25;67.18;102847.47;681127;28;1903;-80
2021/12/19 00:50:30;;;;;;;19.80;12.00;;;;;;;9.18;67.26;102846.19;684831;28;1535;-80
2021/12/19 00:50:50;;;;;;;18.95;11.93;;;;;;;9.15;67.16;102835.56;685293;28;853;-80
2021/12/19 00:51:17;;;;;;;18.58;12.02;;;;;;;9.25;67.45;102856.22;692915;28;1134;-80
2021/12/19 00:51:38;;;;;;;18.58;11.65;;;;;;;9.15;67.26;102830.34;693336;28;951;-80
2021/12/19 00:51:59;;;;;;;20.40;11.48;;;;;;;9.10;67.19;102843.03;688239;28;1776;-80
2021/12/19 00:52:19;;;;;;;19.60;10.93;;;;;;;9.10;67.50;102840.44;687411;28;1939;-80
2021/12/19 00:52:40;;;;;;;18.58;10.85;;;;;;;9.08;67.33;102838.56;683005;28;1636;-80
2021/12/19 00:53:01;;;;;;;17.17;10.60;;;;;;;9.14;67.13;102850.28;685982;28;1099;-80
2021/12/19 00:53:21;;;;;;;19.27;11.17;;;;;;;9.14;67.58;102851.97;687390;28;1650;-80
2021/12/19 00:53:43;;;;;;;19.50;11.63;;;;;;;9.01;67.35;102843.34;685226;28;1196;-80
2021/12/19 00:54:09;;;;;;;19.85;12.00;;;;;;;9.02;67.54;102845.13;687953;28;1237;-81
2021/12/19 00:54:29;;;;;;;19.70;12.20;;;;;;;9.07;67.74;102831.53;688020;28;1672;-80
2021/12/19 00:54:50;;;;;;;19.80;12.15;;;;;;;9.02;67.56;102844.22;684600;28;1166;-80
2021/12/19 00:55:11;;;;;;;19.30;12.00;;;;;;;8.99;67.31;102836.22;681970;29;1222;-80
2021/12/19 00:55:31;;;;;;;18.15;11.30;;;;;;;9.12;67.66;102845.75;681864;29;1734;-80
2021/12/19 00:55:52;;;;;;;18.70;11.00;;;;;;;9.07;67.37;102841.97;687317;28;2057;-80
2021/12/19 00:56:14;;;;;;;18.70;11.05;;;;;;;9.14;67.29;102844.16;685160;28;1099;-80
2021/12/19 00:56:37;;;;;;;18.58;10.95;;;;;;;9.14;66.93;102831.13;687907;28;885;-80
2021/12/19 00:56:58;;;;;;;16.75;10.75;;;;;;;9.12;67.03;102838.84;692340;28;1319;-80
2021/12/19 00:57:18;;;;;;;15.23;10.25;;;;;;;9.10;67.07;102834.34;690643;28;1223;-80
2021/12/19 00:57:39;;;;;;;15.18;10.43;;;;;;;9.16;67.40;102853.00;690663;28;1208;-80
2021/12/19 00:58:00;;;;;;;17.57;10.30;;;;;;;9.06;67.42;102841.03;685335;28;1049;-80
2021/12/19 00:58:21;;;;;;;18.33;10.60;;;;;;;9.02;67.38;102839.94;685325;28;1178;-80
2021/12/19 00:58:42;;;;;;;18.00;10.40;;;;;;;9.07;67.43;102839.34;690613;28;1527;-80
2021/12/19 00:59:03;;;;;;;18.25;10.80;;;;;;;9.20;67.47;102848.91;683489;28;1872;-80
2021/12/19 00:59:24;;;;;;;17.05;10.25;;;;;;;9.19;67.27;102845.38;679374;28;1249;-80
2021/12/19 00:59:44;;;;;;;16.70;10.00;;;;;;;9.11;66.80;102833.53;680121;29;812;-80
2021/12/19 01:00:07;;;;;;;16.87;10.00;;;;;;;9.15;67.25;102835.56;685116;28;1087;-80
2021/12/19 01:00:32;;;;;;;16.80;10.30;;;;;;;9.21;66.99;102843.75;685289;28;1434;-80
2021/12/19 01:00:53;;;;;;;13.95;9.90;;;;;;;9.13;67.20;102852.78;685564;28;780;-80
2021/12/19 01:01:14;;;;;;;14.07;9.45;;;;;;;9.15;67.33;102848.59;685023;28;1171;-80
2021/12/19 01:01:36;;;;;;;16.27;9.70;;;;;;;9.13;67.00;102840.66;682541;28;1139;-79
2021/12/19 01:01:57;;;;;;;16.50;9.80;;;;;;;9.15;67.16;102840.78;685332;28;1037;-80
2021/12/19 01:02:17;;;;;;;16.98;10.27;;;;;;;9.23;66.86;102844.78;682241;28;1055;-80
2021/12/19 01:02:38;;;;;;;15.18;9.82;;;;;;;9.20;66.74;102839.34;682563;29;1181;-80
2021/12/19 01:03:00;;;;;;;13.90;9.80;;;;;;;9.18;67.00;102844.50;680054;29;1049;-80
2021/12/19 01:03:21;;;;;;;13.23;9.30;;;;;;;9.13;67.13;102837.13;678332;29;1346;-81
2021/12/19 01:03:44;;;;;;;14.55;9.20;;;;;;;9.12;67.08;102825.84;685161;28;1229;-80
2021/12/19 01:04:10;;;;;;;16.65;9.40;;;;;;;9.21;66.86;102835.94;686355;28;1135;-82
2021/12/19 01:04:31;;;;;;;18.48;10.00;;;;;;;9.14;66.79;102834.66;685330;28;992;-80
2021/12/19 01:04:51;;;;;;;16.90;9.60;;;;;;;9.10;67.21;102831.75;685311;28;1949;-80
2021/12/19 01:05:12;;;;;;;16.47;9.40;;;;;;;9.07;67.25;102821.13;689572;28;1130;-80
2021/12/19 01:05:37;;;;;;;16.48;9.15;;;;;;;9.08;67.00;102822.94;682276;28;1469;-80
2021/12/19 01:05:57;;;;;;;15.88;9.20;;;;;;;9.14;67.12;102821.63;683066;28;1218;-80
2021/12/19 01:06:19;;;;;;;13.82;8.70;;;;;;;9.12;67.38;102835.34;685251;28;1214;-80
2021/12/19 01:06:44;;;;;;;12.95;8.75;;;;;;;9.14;67.19;102828.53;683689;28;1230;-79
2021/12/19 01:07:04;;;;;;;13.52;9.10;;;;;;;9.22;67.18;102836.88;683299;28;1714;-80
2021/12/19 01:07:25;;;;;;;15.02;9.15;;;;;;;9.15;67.14;102833.84;687852;28;1043;-80
2021/12/19 01:07:46;;;;;;;15.47;9.17;;;;;;;9.14;66.79;102831.13;688931;28;1471;-80
2021/12/19 01:08:08;;;;;;;15.02;9.00;;;;;;;9.12;66.99;102831.03;692792;28;1495;-80
2021/12/19 01:08:29;;;;;;;14.85;9.40;;;;;;;9.11;66.88;102828.31;687881;28;898;-80
2021/12/19 01:08:49;;;;;;;15.15;9.27;;;;;;;9.17;66.81;102844.38;685283;28;1255;-80
2021/12/19 01:09:10;;;;;;;14.57;9.00;;;;;;;9.13;66.79;102832.84;691391;28;1485;-81
2021/12/19 01:09:31;;;;;;;13.98;8.85;;;;;;;9.12;66.92;102831.03;687668;28;1122;-80
2021/12/19 01:09:52;;;;;;;14.07;9.00;;;;;;;9.11;67.00;102833.53;688053;28;790;-80
2021/12/19 01:10:28;;;;;;;14.40;9.18;;;;;;;9.11;66.85;102833.53;687996;28;1946;-80
2021/12/19 01:10:49;;;;;;;15.50;8.80;;;;;;;9.08;67.08;102826.41;685881;28;1516;-80
2021/12/19 01:11:09;;;;;;;14.45;8.32;;;;;;;9.08;67.08;102828.13;684600;28;1053;-80
2021/12/19 01:11:30;;;;;;;13.10;8.00;;;;;;;9.07;66.92;102818.53;684625;28;1112;-80
2021/12/19 01:11:51;;;;;;;12.38;7.97;;;;;;;9.15;67.23;102830.34;685094;28;1681;-80
2021/12/19 01:12:11;;;;;;;12.70;8.20;;;;;;;9.09;66.83;102832.53;686689;28;1696;-80
2021/12/19 01:12:33;;;;;;;13.45;8.20;;;;;;;9.10;67.05;102826.53;685173;28;1228;-80
2021/12/19 01:12:53;;;;;;;12.93;8.05;;;;;;;9.07;66.98;102823.72;687971;28;1304;-80
2021/12/19 01:13:15;;;;;;;13.27;8.18;;;;;;;9.08;66.98;102828.13;689019;28;1444;-80
2021/12/19 01:13:36;;;;;;;11.55;8.00;;;;;;;9.04;67.14;102827.91;687736;28;1392;-80
2021/12/19 01:13:56;;;;;;;11.50;8.00;;;;;;;9.16;67.13;102838.25;688103;28;1095;-80
2021/12/19 01:14:18;;;;;;;12.10;7.90;;;;;;;9.10;67.12;102843.03;679791;28;1246;-80
2021/12/19 01:14:41;;;;;;;11.43;7.80;;;;;;;9.03;67.02;102833.03;687832;28;1169;-80
2021/12/19 01:15:04;;;;;;;10.45;7.10;;;;;;;9.03;67.10;102825.22;687795;28;1763;-80
2021/12/19 01:15:24;;;;;;;10.05;6.95;;;;;;;9.01;67.36;102827.72;687779;28;1373;-80
2021/12/19 01:15:47;;;;;;;9.90;6.70;;;;;;;9.00;67.33;102825.00;685058;28;1488;-80
2021/12/19 01:16:08;;;;;;;10.55;7.03;;;;;;;9.04;67.33;102829.63;685231;28;1805;-80
2021/12/19 01:16:28;;;;;;;10.40;7.15;;;;;;;9.03;67.13;102830.44;687808;28;1083;-80
2021/12/19 01:16:49;;;;;;;11.07;7.00;;;;;;;9.06;67.01;102830.63;685391;28;1089;-80
2021/12/19 01:17:10;;;;;;;11.02;7.10;;;;;;;9.06;67.21;102822.81;689085;28;1103;-80
2021/12/19 01:17:31;;;;;;;13.05;7.18;;;;;;;9.10;66.78;102826.53;690100;28;991;-80
2021/12/19 01:17:51;;;;;;;14.20;7.87;;;;;;;9.14;67.01;102836.34;685270;28;1157;-80
2021/12/19 01:18:12;;;;;;;13.48;7.75;;;;;;;9.10;66.98;102831.75;687883;28;1115;-80
2021/12/19 01:18:33;;;;;;;12.05;7.80;;;;;;;9.05;67.50;102829.72;690587;28;1035;-80
2021/12/19 01:18:54;;;;;;;11.35;6.88;;;;;;;9.03;67.26;102831.31;688050;28;780;-80
2021/12/19 01:19:14;;;;;;;11.57;6.63;;;;;;;8.95;67.32;102827.28;690037;28;1146;-80
2021/12/19 01:19:35;;;;;;;10.70;6.20;;;;;;;8.99;67.29;102833.63;687688;28;1034;-80
2021/12/19 01:19:56;;;;;;;9.68;6.60;;;;;;;8.92;67.45;102821.88;682575;28;1244;-80
2021/12/19 01:20:21;;;;;;;10.07;6.72;;;;;;;8.99;67.58;102831.91;688000;28;1195;-79
2021/12/19 01:20:42;;;;;;;9.95;6.88;;;;;;;9.03;67.19;102831.31;686186;28;1403;-81
2021/12/19 01:21:03;;;;;;;11.07;7.03;;;;;;;8.97;67.42;102825.69;688035;28;1280;-80
2021/12/19 01:21:23;;;;;;;11.60;7.00;;;;;;;9.08;67.17;102836.84;687381;28;1396;-79
2021/12/19 01:21:45;;;;;;;11.40;6.80;;;;;;;9.05;67.31;102832.31;685233;28;1036;-80
2021/12/19 01:22:06;;;;;;;9.93;6.80;;;;;;;9.05;66.80;102831.44;682664;28;1212;-80
2021/12/19 01:22:36;;;;;;;10.00;6.83;;;;;;;9.01;67.01;102821.59;689686;28;1495;-80
2021/12/19 01:22:56;;;;;;;10.25;6.45;;;;;;;9.09;67.20;102835.16;685312;28;1127;-80
2021/12/19 01:23:17;;;;;;;10.57;6.35;;;;;;;9.04;67.07;102830.50;690534;28;1096;-80
2021/12/19 01:23:38;;;;;;;10.93;6.93;;;;;;;9.05;66.84;102837.53;691721;28;1862;-80
2021/12/19 01:23:58;;;;;;;10.37;6.87;;;;;;;9.12;66.92;102831.03;687773;28;1984;-80
2021/12/19 01:24:19;;;;;;;9.50;6.43;;;;;;;9.04;66.55;102830.50;681261;28;1013;-80
2021/12/19 01:24:39;;;;;;;9.57;6.20;;;;;;;9.05;66.95;102831.44;685236;28;1143;-81
2021/12/19 01:25:00;;;;;;;10.15;6.47;;;;;;;9.04;66.96;102833.13;685478;28;973;-80
2021/12/19 01:25:21;;;;;;;10.10;6.50;;;;;;;9.07;67.30;102831.53;690528;28;1094;-80
2021/12/19 01:25:44;;;;;;;9.07;6.20;;;;;;;9.03;66.84;102831.31;692103;28;1456;-81
2021/12/19 01:26:05;;;;;;;8.50;5.90;;;;;;;9.01;67.23;102832.00;687553;28;1150;-82
2021/12/19 01:26:50;;;;;;;7.80;5.90;;;;;;;9.05;66.89;102844.44;690378;28;1112;-80
2021/12/19 01:27:10;;;;;;;9.05;6.03;;;;;;;8.95;67.07;102832.50;686914;28;1096;-80
2021/12/19 01:27:31;;;;;;;8.98;5.85;;;;;;;8.93;67.42;102821.09;687841;28;1084;-80
2021/12/19 01:27:52;;;;;;;8.37;6.07;;;;;;;8.93;67.17;102826.28;685356;28;779;-80
2021/12/19 01:28:12;;;;;;;8.02;5.93;;;;;;;8.96;67.06;102823.88;686818;28;1111;-81
2021/12/19 01:28:42;;;;;;;11.63;6.20;;;;;;;9.04;67.29;102833.13;687886;28;1379;-80
2021/12/19 01:29:03;;;;;;;11.45;6.28;;;;;;;8.91;66.94;102820.09;691074;28;1546;-81
2021/12/19 01:29:23;;;;;;;8.25;6.53;;;;;;;8.95;67.51;102822.09;689475;28;1180;-80
2021/12/19 01:29:44;;;;;;;7.60;6.10;;;;;;;8.97;67.04;102823.06;687811;28;1275;-80
2021/12/19 01:30:07;;;;;;;8.43;6.00;;;;;;;8.96;67.09;102823.88;682305;28;1915;-80
2021/12/19 01:30:27;;;;;;;8.77;5.88;;;;;;;9.01;67.27;102838.13;682231;28;2261;-80
2021/12/19 01:30:48;;;;;;;8.97;5.97;;;;;;;8.97;67.14;102830.00;687592;28;2105;-80
2021/12/19 01:31:10;;;;;;;8.02;5.50;;;;;;;8.96;67.31;102826.50;690346;28;1379;-80
2021/12/19 01:31:31;;;;;;;7.88;5.43;;;;;;;9.03;67.07;102830.44;687830;28;1166;-80
2021/12/19 01:31:51;;;;;;;7.38;5.22;;;;;;;8.93;66.96;102828.91;682082;29;1084;-80
2021/12/19 01:32:12;;;;;;;7.65;5.50;;;;;;;8.87;67.33;102820.66;679169;29;1449;-80
2021/12/19 01:32:33;;;;;;;7.20;5.30;;;;;;;8.95;67.11;102842.03;678571;29;1565;-80
2021/12/19 01:32:56;;;;;;;8.15;5.60;;;;;;;8.91;67.37;102830.50;682738;29;853;-80
2021/12/19 01:33:17;;;;;;;8.38;6.00;;;;;;;8.88;67.07;102825.06;684563;28;1339;-80
2021/12/19 01:33:38;;;;;;;9.00;6.10;;;;;;;8.96;67.40;102829.09;682497;28;1255;-80
2021/12/19 01:34:12;;;;;;;8.35;5.80;;;;;;;8.94;67.10;102824.56;682433;29;1302;-80
2021/12/19 01:34:33;;;;;;;7.32;5.70;;;;;;;9.02;67.19;102839.00;682510;29;1151;-80
2021/12/19 01:34:53;;;;;;;7.47;5.93;;;;;;;8.93;67.38;102828.91;683500;28;2107;-80
2021/12/19 01:35:16;;;;;;;8.35;5.90;;;;;;;9.04;67.01;102840.94;682094;29;1221;-80
2021/12/19 01:35:36;;;;;;;9.30;6.28;;;;;;;8.94;67.34;102830.69;684583;28;1388;-80
2021/12/19 01:35:57;;;;;;;9.43;5.90;;;;;;;8.98;67.41;102830.09;683426;28;1858;-81
2021/12/19 01:36:18;;;;;;;8.10;5.55;;;;;;;8.96;67.47;102821.28;685147;28;1643;-80
2021/12/19 01:36:40;;;;;;;9.07;5.18;;;;;;;9.03;66.95;102841.72;687960;28;1193;-80
2021/12/19 01:37:00;;;;;;;8.75;5.30;;;;;;;9.00;67.33;102823.31;687857;28;1059;-80
2021/12/19 01:37:21;;;;;;;8.40;5.30;;;;;;;8.96;67.02;102818.69;687076;28;1084;-80
2021/12/19 01:37:43;;;;;;;7.90;5.40;;;;;;;9.00;67.02;102832.81;687960;28;1107;-80
2021/12/19 01:38:04;;;;;;;7.50;5.30;;;;;;;8.92;67.06;102821.88;686027;28;1222;-80
2021/12/19 01:38:25;;;;;;;7.50;5.68;;;;;;;8.94;67.46;102820.28;684877;28;1395;-79
2021/12/19 01:38:45;;;;;;;7.72;5.90;;;;;;;8.95;67.28;102819.47;685365;28;847;-80
2021/12/19 01:39:07;;;;;;;8.63;5.97;;;;;;;8.96;67.51;102829.09;687653;28;1099;-80
2021/12/19 01:39:28;;;;;;;8.95;5.78;;;;;;;8.94;67.32;102822.88;690061;28;986;-81
2021/12/19 01:39:48;;;;;;;8.45;5.40;;;;;;;8.97;67.36;102825.69;687990;28;824;-80
2021/12/19 01:40:11;;;;;;;8.27;5.30;;;;;;;9.05;67.35;102834.91;689435;28;1111;-80
2021/12/19 01:40:32;;;;;;;7.32;5.30;;;;;;;9.04;66.94;102833.13;683782;28;1276;-80
2021/12/19 01:40:53;;;;;;;8.15;5.72;;;;;;;9.01;67.13;102829.41;685150;28;784;-80
2021/12/19 01:41:23;;;;;;;8.20;5.50;;;;;;;9.01;67.14;102830.31;693151;28;1168;-80
2021/12/19 01:42:02;;;;;;;9.27;5.65;;;;;;;9.04;67.00;102833.13;690634;28;1261;-80
2021/12/19 01:42:29;;;;;;;9.85;6.22;;;;;;;9.05;66.79;102828.81;686815;28;1629;-80
2021/12/19 01:42:53;;;;;;;8.23;5.90;;;;;;;9.11;66.80;102830.94;685194;28;1175;-80
2021/12/19 01:43:20;;;;;;;9.52;5.78;;;;;;;9.11;67.02;102841.34;685005;28;1338;-80
2021/12/19 01:43:40;;;;;;;9.73;5.50;;;;;;;9.14;67.15;102850.28;687691;28;1189;-80
2021/12/19 01:44:01;;;;;;;10.15;6.00;;;;;;;9.13;66.92;102838.06;687754;28;1162;-80
2021/12/19 01:44:23;;;;;;;9.13;6.23;;;;;;;9.09;67.29;102836.03;687622;28;1835;-80
2021/12/19 01:44:44;;;;;;;8.45;6.20;;;;;;;9.12;66.65;102835.34;685292;28;925;-80
2021/12/19 01:45:07;;;;;;;8.27;5.95;;;;;;;9.18;66.75;102838.34;690331;28;1197;-80
2021/12/19 01:45:39;;;;;;;8.00;5.70;;;;;;;9.22;66.90;102842.06;689855;28;1141;-80
2021/12/19 01:46:15;;;;;;;8.48;5.97;;;;;;;9.16;66.58;102825.22;693768;28;1652;-80
2021/12/19 01:46:36;;;;;;;9.00;5.78;;;;;;;9.23;66.84;102839.59;686870;28;1033;-80
2021/12/19 01:46:59;;;;;;;8.43;5.40;;;;;;;9.15;66.80;102825.16;687899;28;1126;-80
2021/12/19 01:47:21;;;;;;;7.35;4.97;;;;;;;9.14;66.38;102829.44;685107;28;1231;-80
2021/12/19 01:47:42;;;;;;;7.45;5.47;;;;;;;9.17;66.70;102833.97;682252;29;1881;-80
2021/12/19 01:48:07;;;;;;;7.88;5.80;;;;;;;9.13;66.62;102822.44;684262;28;1192;-80
2021/12/19 01:48:30;;;;;;;9.15;6.50;;;;;;;9.12;66.55;102830.13;680108;28;2009;-80
2021/12/19 01:48:51;;;;;;;9.15;6.45;;;;;;;9.03;66.83;102826.09;682503;28;812;-80
2021/12/19 01:49:16;;;;;;;8.80;6.20;;;;;;;9.16;66.65;102834.75;684261;28;1139;-80
2021/12/19 01:49:37;;;;;;;8.48;6.07;;;;;;;9.11;66.83;102823.13;687292;28;2076;-80
2021/12/19 01:49:57;;;;;;;8.07;5.57;;;;;;;9.09;66.55;102827.34;685273;28;1123;-80
2021/12/19 01:50:18;;;;;;;8.30;5.53;;;;;;;9.18;66.92;102835.75;686644;28;1906;-80
2021/12/19 01:50:40;;;;;;;8.40;5.68;;;;;;;9.14;66.76;102828.53;682835;28;1321;-81
2021/12/19 01:51:01;;;;;;;9.60;6.20;;;;;;;9.08;66.82;102815.13;689078;28;1201;-80
2021/12/19 01:51:22;;;;;;;9.63;6.27;;;;;;;9.07;66.75;102824.63;687921;28;932;-80
2021/12/19 01:51:43;;;;;;;8.65;5.80;;;;;;;9.00;66.61;102818.09;687594;28;1817;-80